Time;durP1;ratioP1;P1;durP2;ratioP2;P2;SDS_P1;SDS_P2;PMS_P1;PMS_P2;Temp;Humidity;BMP_temperature;BMP_pressure;BME280_temperature;BME280_humidity;BME280_pressure;Samples;Min_cycle;Max_cycle;Signal;HPM_P1;HPM_P2
2023/05/13 00:01:08;;;;;;;12.70;11.60;;;;;;;12.96;94.31;101824.25;4865850;28;20180;-82
2023/05/13 00:03:34;;;;;;;12.45;11.25;;;;;;;12.90;95.15;101824.50;4866981;28;20207;-81
2023/05/13 00:05:59;;;;;;;11.75;10.75;;;;;;;12.91;95.43;101822.69;4870916;28;20112;-81
2023/05/13 00:08:24;;;;;;;12.25;11.02;;;;;;;12.85;95.44;101826.53;4900934;28;20051;-81
2023/05/13 00:10:50;;;;;;;12.30;11.30;;;;;;;12.88;95.40;101821.06;4866220;28;20099;-81
2023/05/13 00:13:15;;;;;;;12.05;10.93;;;;;;;12.80;95.49;101825.00;4869731;28;20056;-81
2023/05/13 00:15:41;;;;;;;11.98;10.88;;;;;;;12.82;94.49;101818.63;4878971;28;20123;-81
2023/05/13 00:18:06;;;;;;;11.88;10.77;;;;;;;12.74;94.98;101815.44;4874026;28;20041;-81
2023/05/13 00:20:32;;;;;;;12.18;11.07;;;;;;;12.74;95.33;101811.91;4886393;28;20373;-81
2023/05/13 00:22:57;;;;;;;11.50;10.50;;;;;;;12.70;95.61;101820.03;4883728;28;20477;-81
2023/05/13 00:25:23;;;;;;;13.18;11.98;;;;;;;12.68;96.27;101813.06;4905605;28;20169;-81
2023/05/13 00:27:48;;;;;;;11.90;10.57;;;;;;;12.67;95.37;101814.00;4930733;28;20589;-81
2023/05/13 00:30:13;;;;;;;12.13;11.02;;;;;;;12.63;95.60;101812.41;4865442;28;20048;-81
2023/05/13 00:32:39;;;;;;;12.30;11.20;;;;;;;12.60;96.19;101805.38;4896932;28;20398;-81
2023/05/13 00:35:04;;;;;;;12.35;11.25;;;;;;;12.60;96.66;101820.53;4930720;28;20524;-81
2023/05/13 00:37:30;;;;;;;12.85;11.55;;;;;;;12.55;97.36;101806.53;4866675;28;20036;-81
2023/05/13 00:39:55;;;;;;;12.23;11.13;;;;;;;12.57;97.89;101818.84;4864844;29;20083;-82
2023/05/13 00:42:21;;;;;;;12.75;11.63;;;;;;;12.54;98.23;101813.66;4889992;28;20581;-82
2023/05/13 00:44:46;;;;;;;12.48;11.38;;;;;;;12.54;97.15;101811.00;4869650;28;20060;-82
2023/05/13 00:47:12;;;;;;;12.48;11.32;;;;;;;12.55;97.81;101811.84;4865410;29;20037;-82
2023/05/13 00:49:37;;;;;;;13.13;12.02;;;;;;;12.51;97.71;101811.13;4864810;28;20025;-82
2023/05/13 00:52:03;;;;;;;11.95;10.85;;;;;;;12.52;96.14;101817.31;4893655;28;20044;-82
2023/05/13 00:54:29;;;;;;;13.18;11.98;;;;;;;12.49;97.54;101817.44;4865167;28;20069;-81
2023/05/13 00:56:55;;;;;;;12.73;11.55;;;;;;;12.48;96.42;101818.41;4880666;28;20030;-81
2023/05/13 00:59:27;;;;;;;13.15;11.95;;;;;;;12.43;96.86;101821.25;4866047;28;20040;-82
2023/05/13 01:02:37;;;;;;;13.07;11.88;;;;;;;12.43;97.42;101815.94;4867181;28;20033;-82
2023/05/13 01:05:23;;;;;;;12.95;11.75;;;;;;;12.39;97.50;101815.19;4897702;28;20053;-82
2023/05/13 01:08:03;;;;;;;13.48;12.10;;;;;;;12.38;98.29;101823.28;4866245;28;20033;-80
2023/05/13 01:10:48;;;;;;;12.40;11.27;;;;;;;12.26;97.64;101821.97;4883970;28;20046;-82
2023/05/13 01:13:27;;;;;;;12.68;11.63;;;;;;;12.27;99.58;101815.72;4866472;28;20100;-81
2023/05/13 01:16:05;;;;;;;13.32;12.07;;;;;;;12.17;99.79;101817.03;4864816;28;20056;-82
2023/05/13 01:18:36;;;;;;;13.45;12.23;;;;;;;12.12;100.00;101806.56;4866375;28;20044;-81
2023/05/13 01:21:04;;;;;;;13.57;11.45;;;;;;;12.07;99.63;101816.53;4945474;28;20030;-82
2023/05/13 01:23:29;;;;;;;12.57;11.48;;;;;;;12.07;99.43;101799.66;4900137;28;20033;-82
2023/05/13 01:25:54;;;;;;;13.63;12.32;;;;;;;11.95;99.34;101811.69;4961831;28;20537;-82
2023/05/13 01:28:20;;;;;;;12.13;11.13;;;;;;;11.89;99.30;101810.16;4864677;28;20032;-80
2023/05/13 01:30:46;;;;;;;13.45;12.15;;;;;;;11.80;98.98;101810.50;4870791;28;20056;-81
2023/05/13 01:33:13;;;;;;;13.75;12.43;;;;;;;11.74;99.54;101816.09;4906645;28;20080;-81
2023/05/13 01:35:38;;;;;;;13.40;12.07;;;;;;;11.63;99.40;101813.00;4865316;28;20701;-81
2023/05/13 01:38:05;;;;;;;12.30;11.20;;;;;;;11.62;99.64;101820.13;4864574;28;20079;-81
2023/05/13 01:40:31;;;;;;;12.98;11.68;;;;;;;11.61;100.00;101822.84;4863404;28;20100;-82
2023/05/13 01:42:57;;;;;;;12.45;11.27;;;;;;;11.56;100.00;101823.03;4864319;28;20475;-81
2023/05/13 01:45:22;;;;;;;12.88;11.57;;;;;;;11.52;100.00;101826.72;4864273;28;20118;-81
2023/05/13 01:47:48;;;;;;;12.85;11.75;;;;;;;11.44;100.00;101821.69;4864572;28;20470;-83
2023/05/13 01:50:13;;;;;;;13.95;11.57;;;;;;;11.39;100.00;101822.81;4861789;28;20025;-82
2023/05/13 01:52:38;;;;;;;12.70;11.38;;;;;;;11.34;100.00;101819.47;4865589;28;20827;-82
2023/05/13 01:55:04;;;;;;;13.48;12.27;;;;;;;11.29;100.00;101814.31;4869744;28;20414;-82
2023/05/13 01:57:30;;;;;;;13.57;12.38;;;;;;;11.22;100.00;101819.00;4877642;28;20088;-82
2023/05/13 01:59:55;;;;;;;13.32;12.07;;;;;;;11.18;100.00;101805.84;4866484;28;20032;-82
2023/05/13 02:02:20;;;;;;;14.20;12.82;;;;;;;11.16;100.00;101819.25;4919647;28;20038;-83
2023/05/13 02:04:46;;;;;;;12.93;11.73;;;;;;;11.13;100.00;101816.69;4920529;28;20029;-82
2023/05/13 02:07:11;;;;;;;14.07;12.70;;;;;;;11.12;100.00;101820.28;4927259;28;20031;-83
2023/05/13 02:09:37;;;;;;;14.18;12.88;;;;;;;11.03;100.00;101799.28;4868594;28;20029;-82
2023/05/13 02:12:02;;;;;;;14.13;12.68;;;;;;;11.06;100.00;101820.50;4865323;28;20087;-81
2023/05/13 02:14:28;;;;;;;13.88;12.65;;;;;;;11.01;100.00;101816.28;4881032;28;20048;-81
2023/05/13 02:16:53;;;;;;;14.18;12.80;;;;;;;11.01;100.00;101821.59;4976573;28;20414;-82
2023/05/13 02:19:18;;;;;;;14.13;12.93;;;;;;;10.93;100.00;101812.09;4866215;28;20076;-81
2023/05/13 02:21:44;;;;;;;14.75;13.35;;;;;;;10.96;100.00;101822.66;4885511;28;20029;-82
2023/05/13 02:24:10;;;;;;;14.40;13.07;;;;;;;10.89;100.00;101812.25;4927529;28;20036;-82
2023/05/13 02:26:35;;;;;;;14.20;12.90;;;;;;;10.89;100.00;101818.47;4864904;29;20025;-80
2023/05/13 02:29:01;;;;;;;13.85;12.68;;;;;;;10.87;100.00;101814.13;4881722;28;20083;-81
2023/05/13 02:31:26;;;;;;;14.52;13.02;;;;;;;10.84;100.00;101820.44;4886391;28;20521;-81
2023/05/13 02:33:51;;;;;;;14.63;13.30;;;;;;;10.84;100.00;101808.91;4897373;28;20041;-81
2023/05/13 02:36:17;;;;;;;13.60;12.30;;;;;;;10.85;100.00;101814.16;4932453;28;20676;-81
2023/05/13 02:38:42;;;;;;;15.77;13.57;;;;;;;10.81;100.00;101811.69;4864616;28;20069;-81
2023/05/13 02:41:07;;;;;;;14.10;12.65;;;;;;;10.75;100.00;101793.28;4864776;28;20441;-82
2023/05/13 02:43:33;;;;;;;14.32;12.90;;;;;;;10.80;100.00;101813.47;4863394;28;20037;-81
2023/05/13 02:45:58;;;;;;;14.15;12.93;;;;;;;10.75;100.00;101812.78;4943319;28;20029;-81
2023/05/13 02:48:23;;;;;;;14.30;13.00;;;;;;;10.71;100.00;101809.34;4875821;28;20033;-82
2023/05/13 02:50:49;;;;;;;14.75;13.35;;;;;;;10.64;100.00;101818.47;4864930;29;20168;-83
2023/05/13 02:53:14;;;;;;;14.85;13.43;;;;;;;10.60;100.00;101814.19;4865204;28;20060;-82
2023/05/13 02:55:39;;;;;;;13.90;12.50;;;;;;;10.59;100.00;101806.25;4873666;28;20037;-82
2023/05/13 02:58:05;;;;;;;14.48;13.25;;;;;;;10.56;100.00;101811.69;4863234;28;20143;-83
2023/05/13 03:00:30;;;;;;;13.85;12.55;;;;;;;10.46;100.00;101805.81;4864623;28;20052;-82
2023/05/13 03:02:56;;;;;;;13.73;12.52;;;;;;;10.41;100.00;101818.44;4859698;28;20117;-83
2023/05/13 03:05:22;;;;;;;13.23;12.02;;;;;;;10.42;100.00;101814.84;4861998;28;20037;-82
2023/05/13 03:07:47;;;;;;;13.10;11.80;;;;;;;10.40;100.00;101817.53;4862955;28;20538;-82
2023/05/13 03:10:13;;;;;;;13.65;12.40;;;;;;;10.35;100.00;101814.16;4872387;28;20054;-83
2023/05/13 03:12:38;;;;;;;14.15;12.93;;;;;;;10.32;100.00;101816.06;4858663;28;20380;-80
2023/05/13 03:15:04;;;;;;;13.77;12.48;;;;;;;10.26;100.00;101809.16;4868493;28;20026;-81
2023/05/13 03:17:30;;;;;;;13.55;12.38;;;;;;;10.30;100.00;101804.63;4863802;28;20203;-82
2023/05/13 03:19:56;;;;;;;13.57;12.35;;;;;;;10.21;100.00;101805.78;4863544;28;20036;-82
2023/05/13 03:22:21;;;;;;;13.00;11.90;;;;;;;10.22;100.00;101804.84;4916538;28;20488;-81
2023/05/13 03:24:47;;;;;;;13.27;12.07;;;;;;;10.26;100.00;101809.16;4924767;28;20124;-81
2023/05/13 03:27:13;;;;;;;13.45;12.05;;;;;;;10.18;100.00;101804.06;4864689;28;20025;-81
2023/05/13 03:29:39;;;;;;;14.50;12.48;;;;;;;10.21;100.00;101808.44;4857692;28;20033;-82
2023/05/13 03:32:06;;;;;;;14.10;12.55;;;;;;;10.09;100.00;101804.38;4864619;28;20156;-82
2023/05/13 03:34:32;;;;;;;13.52;12.27;;;;;;;10.12;100.00;101806.94;4863360;28;20040;-82
2023/05/13 03:36:57;;;;;;;15.18;12.50;;;;;;;10.11;100.00;101814.97;4862338;28;20033;-81
2023/05/13 03:39:24;;;;;;;12.93;11.82;;;;;;;10.09;100.00;101819.47;4876278;28;20031;-82
2023/05/13 03:41:50;;;;;;;12.68;11.45;;;;;;;10.01;100.00;101822.38;4865706;28;20069;-82
2023/05/13 03:44:15;;;;;;;12.95;11.85;;;;;;;10.04;100.00;101826.75;4876009;28;20435;-82
2023/05/13 03:46:41;;;;;;;12.52;11.43;;;;;;;10.04;100.00;101829.41;4879973;28;20143;-81
2023/05/13 03:49:07;;;;;;;12.77;11.68;;;;;;;9.98;100.00;101822.47;4869413;28;20032;-81
2023/05/13 03:51:33;;;;;;;12.65;11.45;;;;;;;9.96;100.00;101819.88;4905835;28;20321;-81
2023/05/13 03:53:59;;;;;;;12.82;11.63;;;;;;;9.95;100.00;101823.47;4919618;28;20041;-81
2023/05/13 03:56:24;;;;;;;13.38;11.98;;;;;;;9.91;100.00;101820.97;4879296;28;20037;-82
2023/05/13 03:58:50;;;;;;;11.95;10.75;;;;;;;10.00;100.00;101818.00;4870460;28;20402;-81
2023/05/13 04:01:15;;;;;;;12.95;11.75;;;;;;;9.92;100.00;101820.03;4867893;28;20347;-82
2023/05/13 04:03:43;;;;;;;13.52;12.30;;;;;;;9.89;100.00;101818.34;4867027;28;20091;-81
2023/05/13 04:06:08;;;;;;;12.63;11.50;;;;;;;9.93;100.00;101825.28;4869601;28;20364;-81
2023/05/13 04:08:33;;;;;;;13.18;11.93;;;;;;;9.92;100.00;101825.34;4865733;28;20104;-82
2023/05/13 04:10:59;;;;;;;12.45;11.35;;;;;;;9.87;100.00;101817.53;4866620;28;20041;-81
2023/05/13 04:13:24;;;;;;;13.10;11.88;;;;;;;9.85;100.00;101815.81;4860699;28;20021;-80
2023/05/13 04:15:50;;;;;;;12.95;11.65;;;;;;;9.87;100.00;101814.00;4875172;28;20041;-81
2023/05/13 04:18:15;;;;;;;12.80;11.60;;;;;;;9.92;100.00;101825.34;4880878;28;20460;-82
2023/05/13 04:20:40;;;;;;;13.43;12.23;;;;;;;9.90;100.00;101830.69;4886365;28;20039;-81
2023/05/13 04:23:06;;;;;;;13.85;12.13;;;;;;;9.89;100.00;101833.41;4909999;28;20033;-81
2023/05/13 04:25:31;;;;;;;12.82;11.57;;;;;;;9.90;100.00;101828.03;4932245;28;20038;-81
2023/05/13 04:27:57;;;;;;;12.52;11.32;;;;;;;9.92;100.00;101830.69;4864859;29;20494;-81
2023/05/13 04:30:22;;;;;;;13.50;11.95;;;;;;;9.94;100.00;101836.78;4869520;28;20341;-81
2023/05/13 04:32:47;;;;;;;13.05;11.77;;;;;;;9.96;100.00;101830.53;4867278;28;20530;-81
2023/05/13 04:35:13;;;;;;;14.05;12.70;;;;;;;9.98;100.00;101827.81;4921247;28;20025;-81
2023/05/13 04:37:38;;;;;;;13.48;12.18;;;;;;;9.93;100.00;101824.44;4911430;28;20052;-81
2023/05/13 04:40:04;;;;;;;14.20;12.77;;;;;;;9.97;100.00;101834.03;4867255;28;20033;-79
2023/05/13 04:42:29;;;;;;;13.63;12.52;;;;;;;10.02;100.00;101833.88;4903601;28;20034;-82
2023/05/13 04:44:55;;;;;;;12.70;11.60;;;;;;;10.02;100.00;101840.06;4893494;28;20039;-82
2023/05/13 04:47:21;;;;;;;14.30;12.90;;;;;;;10.03;100.00;101833.84;4885135;28;20068;-82
2023/05/13 04:49:46;;;;;;;13.85;12.52;;;;;;;10.04;100.00;101838.25;4903653;28;20451;-82
2023/05/13 04:52:12;;;;;;;14.45;13.05;;;;;;;10.08;100.00;101842.56;4911299;28;20536;-81
2023/05/13 04:54:38;;;;;;;15.27;12.90;;;;;;;10.08;100.00;101844.34;4887647;28;20025;-81
2023/05/13 04:57:04;;;;;;;14.60;13.30;;;;;;;10.14;100.00;101838.81;4910468;28;20128;-81
2023/05/13 04:59:30;;;;;;;14.38;12.98;;;;;;;10.15;100.00;101846.72;4868062;28;20204;-81
2023/05/13 05:01:55;;;;;;;14.93;13.63;;;;;;;10.19;100.00;101842.19;4866889;28;20029;-81
2023/05/13 05:04:21;;;;;;;13.32;12.05;;;;;;;10.23;100.00;101839.38;4865419;28;20044;-80
2023/05/13 05:06:47;;;;;;;14.23;12.85;;;;;;;10.22;99.86;101836.75;4866715;28;20044;-81
2023/05/13 05:09:13;;;;;;;14.23;12.70;;;;;;;10.35;100.00;101847.91;4865857;29;20036;-82
2023/05/13 05:11:38;;;;;;;14.18;12.60;;;;;;;10.39;99.87;101853.06;4868469;28;20063;-82
2023/05/13 05:14:03;;;;;;;15.32;13.27;;;;;;;10.44;99.28;101850.25;4866215;29;20040;-82
2023/05/13 05:16:28;;;;;;;14.95;13.55;;;;;;;10.54;99.27;101859.66;4884850;28;20049;-82
2023/05/13 05:18:54;;;;;;;14.98;13.50;;;;;;;10.56;98.96;101857.81;4865548;29;20041;-82
2023/05/13 05:21:20;;;;;;;14.95;13.35;;;;;;;10.66;98.65;101869.03;4897178;28;20497;-81
2023/05/13 05:23:45;;;;;;;14.38;13.15;;;;;;;10.78;99.31;101870.38;4868492;28;20044;-82
2023/05/13 05:26:11;;;;;;;14.02;12.73;;;;;;;10.84;98.00;101872.81;4880480;28;20029;-83
2023/05/13 05:28:38;;;;;;;14.38;13.07;;;;;;;10.89;98.19;101868.19;4893422;28;20032;-82
2023/05/13 05:31:04;;;;;;;14.88;13.38;;;;;;;11.03;97.50;101878.34;4866836;28;20406;-82
2023/05/13 05:33:29;;;;;;;14.05;12.65;;;;;;;11.11;97.09;101874.47;4873052;28;20071;-81
2023/05/13 05:35:55;;;;;;;14.52;13.23;;;;;;;11.19;96.46;101868.88;4872687;28;20087;-82
2023/05/13 05:38:20;;;;;;;14.13;12.90;;;;;;;11.34;96.83;101878.97;4937789;28;20025;-82
2023/05/13 05:40:45;;;;;;;14.90;13.40;;;;;;;11.49;96.79;101885.50;4857262;28;20037;-82
2023/05/13 05:43:11;;;;;;;14.50;13.20;;;;;;;11.62;95.55;101878.78;4865846;28;20044;-81
2023/05/13 05:45:37;;;;;;;14.82;13.23;;;;;;;11.76;94.77;101880.06;4908939;28;20479;-82
2023/05/13 05:48:04;;;;;;;14.20;12.90;;;;;;;11.81;92.97;101873.59;4882228;28;20029;-81
2023/05/13 05:50:30;;;;;;;15.07;13.60;;;;;;;11.99;93.83;101877.34;4910530;28;20033;-81
2023/05/13 05:52:56;;;;;;;14.85;13.38;;;;;;;12.09;92.96;101872.53;4889254;28;20114;-82
2023/05/13 05:55:21;;;;;;;14.52;13.07;;;;;;;12.23;91.60;101883.50;4937522;28;20752;-82
2023/05/13 05:57:47;;;;;;;14.25;12.95;;;;;;;12.32;90.95;101875.09;4887241;28;20556;-81
2023/05/13 06:00:13;;;;;;;14.20;12.93;;;;;;;12.39;90.45;101881.94;4874796;28;20037;-82
2023/05/13 06:02:39;;;;;;;14.25;12.95;;;;;;;12.33;90.78;101889.31;4871070;28;20025;-81
2023/05/13 06:05:05;;;;;;;18.27;13.77;;;;;;;12.21;90.75;101893.38;4889916;28;20032;-82
2023/05/13 06:07:30;;;;;;;16.00;14.30;;;;;;;12.10;92.22;101884.94;4911949;28;20025;-82
2023/05/13 06:09:55;;;;;;;15.35;13.85;;;;;;;12.03;91.98;101873.63;4927450;28;20527;-83
2023/05/13 06:12:21;;;;;;;15.38;13.95;;;;;;;12.04;91.24;101882.50;4908535;28;20033;-81
2023/05/13 06:14:47;;;;;;;14.90;13.60;;;;;;;12.12;91.50;101881.28;4873399;28;20033;-82
2023/05/13 06:17:13;;;;;;;15.70;14.20;;;;;;;12.45;90.64;101899.47;4872436;28;20051;-82
2023/05/13 06:19:41;;;;;;;18.38;14.10;;;;;;;12.69;89.67;101887.75;4907316;28;20043;-82
2023/05/13 06:22:07;;;;;;;15.40;13.90;;;;;;;12.95;89.26;101891.09;4916297;28;20034;-82
2023/05/13 06:24:32;;;;;;;15.23;13.82;;;;;;;13.02;87.37;101897.06;4891304;28;20087;-81
2023/05/13 06:26:58;;;;;;;15.38;13.95;;;;;;;13.23;87.06;101896.13;4889583;28;20029;-82
2023/05/13 06:29:23;;;;;;;14.55;13.15;;;;;;;13.51;85.89;101885.03;4868466;28;20019;-81
2023/05/13 06:31:48;;;;;;;13.80;12.50;;;;;;;13.84;86.00;101893.28;4900876;28;20466;-82
2023/05/13 06:34:15;;;;;;;14.73;13.23;;;;;;;13.85;82.80;101894.16;4863861;28;20482;-81
2023/05/13 06:36:41;;;;;;;14.18;12.95;;;;;;;14.13;83.99;101891.00;4872285;28;20043;-82
2023/05/13 06:39:07;;;;;;;15.18;13.73;;;;;;;14.34;82.92;101897.13;4895780;28;20023;-82
2023/05/13 06:41:32;;;;;;;14.48;13.07;;;;;;;14.51;80.94;101896.31;4916613;28;20491;-82
2023/05/13 06:43:57;;;;;;;19.02;13.93;;;;;;;14.64;80.14;101902.75;4871109;28;20036;-82
2023/05/13 06:46:23;;;;;;;15.00;13.60;;;;;;;14.48;79.58;101902.63;4878037;28;20180;-82
2023/05/13 06:48:51;;;;;;;15.35;13.85;;;;;;;14.56;79.60;101899.59;4864192;28;20061;-82
2023/05/13 06:51:16;;;;;;;14.93;13.43;;;;;;;14.97;80.28;101902.84;4864761;28;20049;-82
2023/05/13 06:53:41;;;;;;;15.75;14.15;;;;;;;15.02;77.51;101895.41;4869139;28;20056;-80
2023/05/13 06:56:07;;;;;;;14.60;13.20;;;;;;;14.89;76.51;101903.22;4892654;28;20088;-82
2023/05/13 06:58:32;;;;;;;15.77;14.27;;;;;;;14.87;79.70;101901.56;4864616;29;20021;-81
2023/05/13 07:00:57;;;;;;;14.60;13.10;;;;;;;15.04;78.73;101903.38;4873347;28;20108;-82
2023/05/13 07:03:23;;;;;;;15.38;13.90;;;;;;;15.09;75.72;101909.34;4863593;28;20428;-82
2023/05/13 07:05:48;;;;;;;16.27;14.68;;;;;;;15.04;75.47;101916.75;4864826;28;20364;-82
2023/05/13 07:08:16;;;;;;;15.30;13.90;;;;;;;15.15;74.92;101911.72;4909254;28;20308;-82
2023/05/13 07:10:42;;;;;;;15.85;14.30;;;;;;;15.43;75.91;101905.75;4866779;28;20398;-83
2023/05/13 07:13:07;;;;;;;15.30;13.90;;;;;;;15.62;75.79;101910.94;4867201;28;20029;-82
2023/05/13 07:15:32;;;;;;;16.38;14.88;;;;;;;16.00;73.78;101910.66;4865129;28;20463;-82
2023/05/13 07:17:58;;;;;;;15.35;13.90;;;;;;;16.46;72.79;101906.19;4908553;28;20506;-84
2023/05/13 07:20:25;;;;;;;15.57;14.07;;;;;;;16.77;72.03;101909.81;4867637;28;20035;-85
2023/05/13 07:22:51;;;;;;;15.30;13.77;;;;;;;16.71;70.34;101904.75;4867171;28;20060;-87
2023/05/13 07:25:17;;;;;;;14.40;13.10;;;;;;;16.98;69.22;101905.81;4908897;28;20070;-87
2023/05/13 07:27:43;;;;;;;13.82;12.63;;;;;;;17.36;68.22;101908.81;4868378;29;20029;-86
2023/05/13 07:30:10;;;;;;;13.88;12.52;;;;;;;17.89;67.06;101909.97;4932504;28;20179;-87
2023/05/13 07:32:35;;;;;;;14.55;13.13;;;;;;;18.02;63.80;101903.78;4864668;28;20041;-85
2023/05/13 07:35:02;;;;;;;13.15;12.05;;;;;;;18.10;61.97;101918.47;4868103;28;20386;-91
2023/05/13 07:37:27;;;;;;;13.40;12.20;;;;;;;18.17;61.90;101911.69;4868757;29;20056;-91
2023/05/13 07:39:53;;;;;;;13.43;12.18;;;;;;;18.29;60.51;101915.41;4932822;28;20033;-89
2023/05/13 07:42:18;;;;;;;12.88;11.77;;;;;;;18.47;60.07;101915.16;4878118;28;20099;-87
2023/05/13 07:44:44;;;;;;;13.48;12.07;;;;;;;18.79;60.04;101905.78;4868120;29;20044;-89
2023/05/13 07:47:09;;;;;;;13.60;12.30;;;;;;;19.37;59.30;101915.22;4931542;28;20168;-85
2023/05/13 07:49:34;;;;;;;13.18;11.93;;;;;;;19.51;57.61;101919.63;4879920;28;20410;-83
2023/05/13 07:52:00;;;;;;;12.65;11.45;;;;;;;19.78;56.16;101915.94;4962466;28;20319;-83
2023/05/13 07:54:25;;;;;;;13.23;12.02;;;;;;;20.02;56.03;101908.75;4867071;28;20100;-83
2023/05/13 07:56:51;;;;;;;13.52;12.38;;;;;;;20.61;57.87;101911.53;4867661;28;20463;-83
2023/05/13 07:59:17;;;;;;;14.50;13.10;;;;;;;20.99;53.92;101913.13;4874372;28;20406;-83
2023/05/13 08:01:43;;;;;;;13.10;11.90;;;;;;;21.12;52.28;101911.19;4869203;28;20029;-82
2023/05/13 08:04:08;;;;;;;13.43;12.32;;;;;;;21.59;52.00;101914.69;4866146;28;20032;-82
2023/05/13 08:06:33;;;;;;;13.15;11.82;;;;;;;21.55;51.15;101912.34;4866568;29;20052;-83
2023/05/13 08:09:00;;;;;;;16.67;13.27;;;;;;;22.11;49.68;101913.16;4873422;28;20045;-82
2023/05/13 08:11:25;;;;;;;14.10;12.80;;;;;;;22.49;51.19;101913.66;4864710;28;20095;-85
2023/05/13 08:13:51;;;;;;;14.48;12.98;;;;;;;22.96;48.62;101911.50;4875785;28;20039;-82
2023/05/13 08:16:16;;;;;;;13.32;12.10;;;;;;;23.05;47.38;101907.97;4930452;28;20076;-82
2023/05/13 08:18:41;;;;;;;15.25;13.63;;;;;;;23.57;47.43;101916.97;4904544;28;20037;-82
2023/05/13 08:21:07;;;;;;;12.50;11.30;;;;;;;23.92;45.68;101913.84;4947410;28;20509;-82
2023/05/13 08:23:34;;;;;;;12.25;10.88;;;;;;;23.74;45.16;101912.75;4866241;28;20399;-82
2023/05/13 08:25:59;;;;;;;12.35;11.20;;;;;;;24.03;44.79;101910.13;4929191;28;20033;-82
2023/05/13 08:28:26;;;;;;;11.40;10.30;;;;;;;24.31;44.76;101917.47;4866845;28;20032;-82
2023/05/13 08:30:51;;;;;;;11.65;10.52;;;;;;;24.43;43.14;101911.94;4880229;28;20097;-83
2023/05/13 08:33:17;;;;;;;11.32;10.20;;;;;;;24.75;42.40;101917.97;4867311;28;20103;-83
2023/05/13 08:35:42;;;;;;;10.95;9.95;;;;;;;24.67;41.96;101911.53;4874112;28;20033;-83
2023/05/13 08:38:07;;;;;;;11.60;10.30;;;;;;;24.68;42.29;101907.78;4946177;28;20184;-82
2023/05/13 08:40:33;;;;;;;11.20;10.10;;;;;;;24.75;42.54;101920.69;4909515;28;20027;-82
2023/05/13 08:43:03;;;;;;;10.68;9.52;;;;;;;24.94;42.22;101913.50;4953789;28;20033;-82
2023/05/13 08:45:30;;;;;;;14.38;9.52;;;;;;;25.57;41.57;101916.47;4866785;28;20029;-83
2023/05/13 08:47:59;;;;;;;13.43;11.05;;;;;;;25.82;41.44;101909.50;4891097;28;20037;-83
2023/05/13 08:50:29;;;;;;;12.32;10.23;;;;;;;26.27;40.95;101920.44;4856476;29;20666;-83
2023/05/13 08:52:54;;;;;;;14.10;11.73;;;;;;;26.15;40.61;101916.19;4958702;28;20017;-82
2023/05/13 08:55:22;;;;;;;11.20;10.10;;;;;;;26.54;38.52;101922.28;4866629;29;20123;-82
2023/05/13 08:57:48;;;;;;;10.82;9.80;;;;;;;26.74;39.51;101909.28;4929559;28;20021;-82
2023/05/13 09:00:15;;;;;;;11.32;9.98;;;;;;;27.19;39.24;101904.69;4935864;28;20399;-81
2023/05/13 09:02:40;;;;;;;9.95;9.13;;;;;;;27.73;38.86;101914.41;4943864;28;20063;-82
2023/05/13 09:05:07;;;;;;;10.55;9.55;;;;;;;27.68;35.51;101899.50;4945334;28;20072;-82
2023/05/13 09:07:33;;;;;;;11.43;9.00;;;;;;;27.85;35.72;101895.84;4874814;28;20332;-83
2023/05/13 09:09:59;;;;;;;10.68;9.68;;;;;;;28.15;34.96;101902.59;4900908;28;20092;-82
2023/05/13 09:12:47;;;;;;;13.32;9.75;;;;;;;28.61;35.59;101911.22;4873279;28;20422;-83
2023/05/13 09:15:15;;;;;;;10.23;9.20;;;;;;;28.53;33.47;101903.88;4950964;28;20099;-83
2023/05/13 09:17:42;;;;;;;10.45;9.40;;;;;;;28.85;34.80;101909.53;4897828;28;20121;-83
2023/05/13 09:20:10;;;;;;;11.05;10.00;;;;;;;29.69;35.46;101902.69;4873714;28;20458;-82
2023/05/13 09:22:38;;;;;;;10.65;9.55;;;;;;;30.16;32.75;101899.88;4881233;28;20494;-83
2023/05/13 09:25:04;;;;;;;10.60;9.60;;;;;;;30.59;32.09;101904.91;4902695;28;20031;-83
2023/05/13 09:27:37;;;;;;;10.55;9.55;;;;;;;30.16;33.45;101897.16;4878595;28;20386;-83
2023/05/13 09:30:03;;;;;;;10.90;9.82;;;;;;;29.78;30.43;101899.72;4865640;28;20553;-81
2023/05/13 09:32:28;;;;;;;10.13;8.82;;;;;;;30.02;30.99;101895.16;4869374;28;20064;-83
2023/05/13 09:34:54;;;;;;;10.23;9.43;;;;;;;30.41;30.31;101900.56;4914698;28;20039;-83
2023/05/13 09:37:23;;;;;;;11.63;10.48;;;;;;;30.06;30.86;101896.50;4885565;28;20095;-82
2023/05/13 09:39:52;;;;;;;9.40;8.50;;;;;;;30.55;31.46;101898.91;4903804;28;20036;-82
2023/05/13 09:42:18;;;;;;;10.30;9.30;;;;;;;31.02;31.09;101897.84;4869603;28;20397;-83
2023/05/13 09:44:44;;;;;;;12.43;8.90;;;;;;;31.35;30.11;101900.25;4899331;28;20109;-82
2023/05/13 09:47:12;;;;;;;9.70;8.90;;;;;;;31.29;30.44;101887.28;4881231;28;20022;-84
2023/05/13 09:49:39;;;;;;;9.50;8.60;;;;;;;31.64;28.94;101893.91;4866494;28;20422;-84
2023/05/13 09:52:08;;;;;;;9.73;8.75;;;;;;;31.90;28.36;101888.78;4866787;28;20286;-83
2023/05/13 09:54:35;;;;;;;9.70;8.77;;;;;;;32.08;28.36;101893.84;4864324;29;20106;-83
2023/05/13 09:57:01;;;;;;;9.70;8.90;;;;;;;32.18;27.89;101897.13;4863114;29;20033;-84
2023/05/13 09:59:26;;;;;;;9.07;8.18;;;;;;;31.87;27.58;101891.91;4867603;28;20110;-83
2023/05/13 10:01:54;;;;;;;9.57;8.68;;;;;;;32.09;27.68;101890.03;4875738;28;20479;-84
2023/05/13 10:04:21;;;;;;;9.63;8.73;;;;;;;32.39;27.42;101887.19;4864618;29;20508;-84
2023/05/13 10:06:47;;;;;;;8.98;8.15;;;;;;;32.50;27.75;101889.44;4864961;28;20044;-84
2023/05/13 10:09:15;;;;;;;9.07;8.23;;;;;;;32.50;27.68;101885.84;4867312;29;20517;-83
2023/05/13 10:11:43;;;;;;;7.88;7.22;;;;;;;33.30;26.75;101887.31;4862486;29;20029;-84
2023/05/13 10:14:09;;;;;;;8.70;7.80;;;;;;;33.34;25.11;101874.81;4863299;29;20108;-83
2023/05/13 10:16:35;;;;;;;8.60;7.45;;;;;;;33.20;25.15;101877.50;4865946;28;20057;-83
2023/05/13 10:19:02;;;;;;;8.05;7.10;;;;;;;33.15;24.67;101882.78;4860466;28;20037;-83
2023/05/13 10:21:27;;;;;;;7.38;6.72;;;;;;;32.82;24.56;101877.00;4858798;28;20033;-83
2023/05/13 10:23:54;;;;;;;7.90;7.15;;;;;;;33.11;24.53;101880.59;4862445;28;20517;-84
2023/05/13 10:26:21;;;;;;;7.88;7.15;;;;;;;32.61;23.89;101877.03;4861702;29;20165;-84
2023/05/13 10:28:47;;;;;;;8.25;7.40;;;;;;;32.67;25.55;101873.47;4861872;29;20013;-83
2023/05/13 10:31:12;;;;;;;7.35;6.65;;;;;;;32.71;25.30;101867.34;4924274;28;20036;-83
2023/05/13 10:33:40;;;;;;;8.25;6.38;;;;;;;33.78;24.65;101882.72;4862571;28;20037;-83
2023/05/13 10:36:40;;;;;;;7.80;7.05;;;;;;;34.31;24.70;101877.34;4940669;28;20450;-84
2023/05/13 10:39:15;;;;;;;6.22;5.63;;;;;;;35.09;23.77;101874.84;4956828;28;20502;-83
2023/05/13 10:42:16;;;;;;;7.35;6.68;;;;;;;35.11;24.55;101875.47;4936319;28;20091;-83
2023/05/13 10:44:41;;;;;;;7.60;6.28;;;;;;;34.73;21.83;101874.44;4915092;28;20329;-84
2023/05/13 10:47:08;;;;;;;7.05;6.30;;;;;;;34.50;22.08;101877.63;4959073;28;20026;-83
2023/05/13 10:49:34;;;;;;;6.63;6.03;;;;;;;34.32;22.50;101867.13;4863633;28;20560;-84
2023/05/13 10:52:07;;;;;;;7.18;5.65;;;;;;;33.84;21.27;101876.34;4863879;29;20785;-83
2023/05/13 10:54:39;;;;;;;6.05;5.47;;;;;;;33.57;22.12;101869.88;4931867;28;20455;-83
2023/05/13 10:57:05;;;;;;;6.65;5.25;;;;;;;33.67;22.06;101858.47;4867818;28;20036;-82
2023/05/13 10:59:32;;;;;;;9.52;5.57;;;;;;;34.29;21.71;101864.81;4930500;28;20121;-82
2023/05/13 11:02:01;;;;;;;6.82;6.13;;;;;;;34.12;21.99;101869.88;4924857;28;20257;-83
2023/05/13 11:04:26;;;;;;;5.75;5.20;;;;;;;34.28;21.90;101854.81;4867633;28;20444;-83
2023/05/13 11:06:52;;;;;;;5.65;4.78;;;;;;;34.54;20.84;101867.84;4867945;28;20104;-84